createdAt,value
2022-11-17T00:00:20.200Z,7.60
2022-11-17T00:03:05.867Z,5.65
2022-11-17T00:05:51.333Z,7.83
2022-11-17T00:08:37.032Z,5.57
2022-11-17T00:11:22.499Z,6.60
2022-11-17T00:14:30.577Z,7.27
2022-11-17T00:17:16.147Z,6.83
2022-11-17T00:20:20.107Z,5.43
2022-11-17T00:23:06.823Z,8.83
2022-11-17T00:25:52.297Z,6.77
2022-11-17T00:28:37.873Z,7.87
2022-11-17T00:31:42.975Z,7.03
2022-11-17T00:34:28.464Z,6.90
2022-11-17T00:37:15.619Z,6.47
2022-11-17T00:40:01.523Z,6.00
2022-11-17T00:42:47.355Z,6.57
2022-11-17T00:45:32.751Z,6.60
2022-11-17T00:48:18.278Z,5.70
2022-11-17T00:51:05.274Z,6.73
2022-11-17T00:53:51.100Z,6.97
2022-11-17T00:56:36.846Z,6.33
2022-11-17T00:59:22.741Z,7.10
2022-11-17T01:02:08.007Z,7.70
2022-11-17T01:04:53.472Z,6.80
2022-11-17T01:07:38.897Z,6.43
2022-11-17T01:10:24.318Z,5.90
2022-11-17T01:13:09.881Z,6.27
2022-11-17T01:15:55.330Z,7.07
2022-11-17T01:18:41.376Z,6.27
2022-11-17T01:21:28.603Z,5.93
2022-11-17T01:24:16.350Z,7.13
2022-11-17T01:27:02.059Z,10.67
2022-11-17T01:29:47.930Z,6.37
2022-11-17T01:32:33.472Z,5.00
2022-11-17T01:35:19.003Z,5.13
2022-11-17T01:38:04.363Z,6.67
2022-11-17T01:40:49.825Z,6.17
2022-11-17T01:43:42.310Z,5.70
2022-11-17T01:46:32.519Z,5.57
2022-11-17T01:49:25.070Z,5.73
2022-11-17T01:52:11.641Z,7.53
2022-11-17T01:54:59.345Z,6.60
2022-11-17T01:58:02.842Z,7.00
2022-11-17T02:00:48.322Z,5.30
2022-11-17T02:03:35.482Z,6.23
2022-11-17T02:06:34.126Z,7.03
2022-11-17T02:09:21.112Z,6.50
2022-11-17T02:12:10.680Z,5.80
2022-11-17T02:14:56.575Z,8.07
2022-11-17T02:17:43.361Z,6.13
2022-11-17T02:21:02.084Z,6.03
2022-11-17T02:24:06.663Z,5.17
2022-11-17T02:27:13.660Z,5.93
2022-11-17T02:30:10.658Z,6.50
2022-11-17T02:33:03.141Z,6.30
2022-11-17T02:35:58.161Z,7.07
2022-11-17T02:38:58.539Z,8.23
2022-11-17T02:42:07.943Z,5.57
2022-11-17T02:44:58.364Z,5.33
2022-11-17T02:47:48.487Z,7.50
2022-11-17T02:50:35.492Z,6.93
2022-11-17T02:53:24.187Z,5.47
2022-11-17T02:56:09.613Z,6.03
2022-11-17T02:59:01.702Z,7.03
2022-11-17T03:02:02.318Z,6.50
2022-11-17T03:05:08.636Z,6.63
2022-11-17T03:08:11.559Z,6.30
2022-11-17T03:11:00.117Z,5.93
2022-11-17T03:13:48.596Z,5.00
2022-11-17T03:16:53.576Z,5.53
2022-11-17T03:19:47.799Z,5.83
2022-11-17T03:23:07.207Z,5.00
2022-11-17T03:25:58.212Z,4.83
2022-11-17T03:28:46.516Z,6.57
2022-11-17T03:31:33.651Z,5.97
2022-11-17T03:34:24.469Z,4.90
2022-11-17T03:37:13.371Z,5.83
2022-11-17T03:40:04.638Z,5.20
2022-11-17T03:42:55.652Z,5.27
2022-11-17T03:45:46.638Z,5.63
2022-11-17T03:48:35.101Z,5.00
2022-11-17T03:51:25.178Z,5.67
2022-11-17T03:54:11.095Z,5.23
2022-11-17T03:57:14.027Z,7.43
2022-11-17T04:00:06.214Z,4.43
2022-11-17T04:03:01.231Z,5.23
2022-11-17T04:05:47.047Z,6.13
2022-11-17T04:08:32.921Z,5.03
2022-11-17T04:11:36.843Z,5.10
2022-11-17T04:14:40.754Z,4.93
2022-11-17T04:17:26.020Z,5.13
2022-11-17T04:20:11.702Z,6.10
2022-11-17T04:23:17.452Z,4.90
2022-11-17T04:26:21.518Z,5.53
2022-11-17T04:29:06.949Z,4.20
2022-11-17T04:31:52.685Z,5.77
2022-11-17T04:34:40.858Z,4.77
2022-11-17T04:37:26.610Z,5.20
2022-11-17T04:40:12.296Z,5.00
2022-11-17T04:42:58.020Z,4.70
2022-11-17T04:45:43.452Z,4.50
2022-11-17T04:48:29.103Z,4.60
2022-11-17T04:51:16.409Z,4.77
2022-11-17T04:54:03.540Z,4.23
2022-11-17T04:56:49.238Z,4.93
2022-11-17T04:59:34.750Z,5.50
2022-11-17T05:02:20.499Z,7.87
2022-11-17T05:05:06.370Z,5.37
2022-11-17T05:07:52.012Z,9.03
2022-11-17T05:10:57.082Z,6.73
2022-11-17T05:13:42.830Z,5.80
2022-11-17T05:16:46.542Z,4.53
2022-11-17T05:19:39.199Z,6.93
2022-11-17T05:22:43.183Z,5.40
2022-11-17T05:25:28.570Z,6.67
2022-11-17T05:28:14.104Z,7.40
2022-11-17T05:31:00.094Z,5.93
2022-11-17T05:33:45.407Z,8.53
2022-11-17T05:36:32.850Z,5.10
2022-11-17T05:39:18.427Z,5.67
2022-11-17T05:42:04.180Z,6.17
2022-11-17T05:44:49.694Z,5.03
2022-11-17T05:47:35.237Z,6.10
2022-11-17T05:50:20.604Z,5.20
2022-11-17T05:53:06.263Z,7.60
2022-11-17T05:56:01.960Z,4.03
2022-11-17T05:58:52.211Z,4.10
2022-11-17T06:01:43.889Z,3.67
2022-11-17T06:04:29.627Z,5.33
2022-11-17T06:07:16.007Z,3.60
2022-11-17T06:10:01.833Z,3.90
2022-11-17T06:12:47.882Z,4.77
2022-11-17T06:15:35.111Z,5.17
2022-11-17T06:18:26.266Z,4.23
2022-11-17T06:21:15.463Z,4.43
2022-11-17T06:24:02.679Z,6.47
2022-11-17T06:26:48.336Z,4.33
2022-11-17T06:29:34.762Z,6.10
2022-11-17T06:32:22.127Z,3.53
2022-11-17T06:35:10.092Z,3.60
2022-11-17T06:37:55.811Z,4.17
2022-11-17T06:40:41.570Z,4.67
2022-11-17T06:43:27.446Z,3.90
2022-11-17T06:46:13.013Z,4.10
2022-11-17T06:48:58.336Z,3.23
2022-11-17T06:51:45.447Z,3.30
2022-11-17T06:54:31.445Z,5.00
2022-11-17T06:57:16.855Z,4.37
2022-11-17T07:00:02.738Z,3.77
2022-11-17T07:02:48.449Z,4.50
2022-11-17T07:05:35.746Z,3.90
2022-11-17T07:08:22.729Z,4.23
2022-11-17T07:11:11.087Z,5.07
2022-11-17T07:13:58.282Z,3.13
2022-11-17T07:16:44.104Z,3.87
2022-11-17T07:19:29.617Z,3.43
2022-11-17T07:22:15.154Z,3.07
2022-11-17T07:25:00.691Z,3.10
2022-11-17T07:27:46.263Z,2.67
2022-11-17T07:30:31.957Z,3.67
2022-11-17T07:33:17.873Z,3.90
2022-11-17T07:36:12.073Z,3.73
2022-11-17T07:38:57.900Z,4.40
2022-11-17T07:41:43.623Z,2.63
2022-11-17T07:44:29.080Z,3.07
2022-11-17T07:47:14.749Z,6.53
2022-11-17T07:50:00.596Z,2.07
2022-11-17T07:52:48.637Z,2.20
2022-11-17T07:55:34.615Z,5.03
2022-11-17T07:58:20.339Z,2.13
2022-11-17T08:01:06.952Z,3.70
2022-11-17T08:03:52.746Z,3.70
2022-11-17T08:06:38.020Z,3.23
2022-11-17T08:09:23.535Z,3.93
2022-11-17T08:12:09.138Z,2.97
2022-11-17T08:14:54.474Z,3.57
2022-11-17T08:17:39.955Z,1.33
2022-11-17T08:20:27.757Z,1.73
2022-11-17T08:23:13.622Z,3.20
2022-11-17T08:26:00.202Z,4.53
2022-11-17T08:28:45.843Z,5.43
2022-11-17T08:31:31.403Z,2.97
2022-11-17T08:34:17.229Z,11.18
2022-11-17T08:37:02.806Z,7.95
2022-11-17T08:39:48.507Z,9.40
2022-11-17T08:42:33.968Z,6.28
2022-11-17T08:45:19.513Z,4.95
2022-11-17T08:48:07.452Z,7.57
2022-11-17T08:50:53.151Z,6.03
2022-11-17T08:53:38.733Z,4.00
2022-11-17T08:56:24.240Z,3.22
2022-11-17T08:59:12.749Z,4.00
2022-11-17T09:01:58.539Z,4.40
2022-11-17T09:04:46.157Z,3.63
2022-11-17T09:07:35.790Z,3.65
2022-11-17T09:10:21.746Z,3.33
2022-11-17T09:13:07.767Z,4.72
2022-11-17T09:15:53.235Z,3.88
2022-11-17T09:18:40.002Z,3.25
2022-11-17T09:21:27.272Z,2.17
2022-11-17T09:24:13.094Z,4.30
2022-11-17T09:26:58.658Z,8.63
2022-11-17T09:29:44.224Z,11.48
2022-11-17T09:32:29.686Z,7.80
2022-11-17T09:35:15.685Z,10.23
2022-11-17T09:38:04.033Z,15.35
2022-11-17T09:40:50.247Z,11.02
2022-11-17T09:43:38.996Z,7.25
2022-11-17T09:46:43.646Z,7.75
2022-11-17T09:49:58.922Z,6.00
2022-11-17T09:53:10.004Z,6.72
2022-11-17T09:56:01.044Z,6.47
2022-11-17T09:58:50.122Z,8.63
2022-11-17T10:01:36.124Z,9.23
2022-11-17T10:04:30.245Z,7.90
2022-11-17T10:07:16.570Z,7.10
2022-11-17T10:10:03.593Z,7.90
2022-11-17T10:12:55.550Z,6.90
2022-11-17T10:15:48.687Z,7.80
2022-11-17T10:18:39.262Z,4.80
2022-11-17T10:21:28.528Z,7.25
2022-11-17T10:24:42.420Z,4.50
2022-11-17T10:27:29.707Z,2.65
2022-11-17T10:30:25.875Z,6.32
2022-11-17T10:33:13.504Z,5.75
2022-11-17T10:35:59.411Z,5.75
2022-11-17T10:38:47.771Z,1.42
2022-11-17T10:41:40.797Z,6.15
2022-11-17T10:44:30.403Z,6.95
2022-11-17T10:47:31.624Z,5.95
2022-11-17T10:50:35.714Z,5.15
2022-11-17T10:53:46.497Z,3.92
2022-11-17T10:56:43.081Z,4.25
2022-11-17T10:59:30.303Z,2.22
2022-11-17T11:02:41.846Z,5.68
2022-11-17T11:05:27.613Z,2.10
2022-11-17T11:08:22.322Z,9.63
2022-11-17T11:11:21.666Z,7.80
2022-11-17T11:14:31.509Z,7.47
2022-11-17T11:17:18.129Z,3.50
2022-11-17T11:20:04.613Z,4.68
2022-11-17T11:23:09.017Z,5.10
2022-11-17T11:26:28.816Z,5.35
2022-11-17T11:29:32.888Z,3.92
2022-11-17T11:32:31.873Z,4.28
2022-11-17T11:35:35.453Z,3.90
2022-11-17T11:38:55.494Z,7.20
2022-11-17T11:41:52.949Z,1.90
2022-11-17T11:44:56.653Z,2.45
2022-11-17T11:48:04.089Z,4.30
2022-11-17T11:50:55.347Z,4.05
2022-11-17T11:53:46.640Z,1.75
2022-11-17T11:56:41.973Z,3.40
2022-11-17T11:59:50.183Z,4.72
2022-11-17T12:02:41.954Z,4.55
2022-11-17T12:06:31.358Z,5.85
2022-11-17T12:09:29.699Z,2.25
2022-11-17T12:12:23.130Z,1.95
2022-11-17T12:15:31.624Z,4.15
2022-11-17T12:18:17.420Z,3.35
2022-11-17T12:21:21.621Z,5.80
2022-11-17T12:24:17.125Z,13.00
2022-11-17T12:27:34.200Z,1.77
2022-11-17T12:30:35.409Z,4.20
2022-11-17T12:33:21.761Z,5.78
2022-11-17T12:36:30.479Z,5.75
2022-11-17T12:39:53.853Z,8.30
2022-11-17T12:43:17.815Z,4.97
2022-11-17T12:46:21.730Z,3.65
2022-11-17T12:49:19.067Z,7.85
2022-11-17T12:52:12.355Z,5.53
2022-11-17T12:55:36.200Z,7.18
2022-11-17T12:58:42.637Z,8.90
2022-11-17T13:01:36.032Z,6.90
2022-11-17T13:04:34.220Z,3.85
2022-11-17T13:07:22.727Z,9.30
2022-11-17T13:10:27.302Z,9.02
2022-11-17T13:13:19.444Z,13.77
2022-11-17T13:16:05.146Z,11.93
2022-11-17T13:18:50.745Z,9.77
2022-11-17T13:21:36.430Z,11.40
2022-11-17T13:24:34.134Z,9.70
2022-11-17T13:27:24.794Z,8.52
2022-11-17T13:30:23.089Z,9.57
2022-11-17T13:33:19.818Z,13.93
2022-11-17T13:36:08.843Z,7.32
2022-11-17T13:39:00.431Z,8.18
2022-11-17T13:41:46.681Z,9.40
2022-11-17T13:44:32.756Z,8.45
2022-11-17T13:47:38.314Z,4.78
2022-11-17T13:50:27.117Z,5.25
2022-11-17T13:53:12.931Z,5.53
2022-11-17T13:55:58.750Z,6.03
2022-11-17T13:58:49.002Z,16.08
2022-11-17T14:01:35.237Z,8.90
2022-11-17T14:04:23.596Z,23.20
2022-11-17T14:07:11.973Z,18.77
2022-11-17T14:10:22.691Z,22.67
2022-11-17T14:13:25.156Z,22.30
2022-11-17T14:16:40.440Z,22.98
2022-11-17T14:19:34.929Z,21.90
2022-11-17T14:22:27.732Z,21.25
2022-11-17T14:25:16.827Z,21.60
2022-11-17T14:28:02.638Z,20.95
2022-11-17T14:30:49.488Z,21.00
2022-11-17T14:33:35.217Z,19.98
2022-11-17T14:36:21.386Z,19.27
2022-11-17T14:39:14.801Z,18.77
2022-11-17T14:42:00.341Z,17.08
2022-11-17T14:44:45.909Z,17.17
2022-11-17T14:47:31.836Z,16.92
2022-11-17T14:50:18.582Z,15.88
2022-11-17T14:53:04.742Z,16.52
2022-11-17T14:55:50.612Z,16.27
2022-11-17T14:58:36.889Z,16.60
2022-11-17T15:01:29.531Z,15.07
2022-11-17T15:04:49.027Z,14.90
2022-11-17T15:07:24.093Z,14.50
2022-11-17T15:10:10.570Z,18.25
2022-11-17T15:12:56.516Z,13.90
2022-11-17T15:15:42.470Z,13.85
2022-11-17T15:18:28.354Z,14.45
2022-11-17T15:21:15.995Z,13.02
2022-11-17T15:24:03.428Z,12.88
2022-11-17T15:26:49.327Z,13.05
2022-11-17T15:29:35.058Z,13.63
2022-11-17T15:32:20.597Z,14.60
2022-11-17T15:35:06.474Z,16.13
2022-11-17T15:37:51.887Z,16.73
2022-11-17T15:40:37.445Z,20.10
2022-11-17T15:43:29.892Z,27.95
2022-11-17T15:46:17.874Z,34.70
2022-11-17T15:49:04.005Z,36.53
2022-11-17T15:51:49.654Z,43.55
2022-11-17T15:54:35.196Z,51.88
2022-11-17T15:57:20.887Z,54.97
2022-11-17T16:00:07.558Z,57.88
2022-11-17T16:02:57.318Z,60.20
2022-11-17T16:05:45.177Z,56.15
2022-11-17T16:08:31.849Z,56.05
2022-11-17T16:11:17.606Z,56.25
2022-11-17T16:14:04.033Z,56.47
2022-11-17T16:16:49.759Z,56.05
2022-11-17T16:19:35.462Z,55.70
2022-11-17T16:22:21.595Z,56.22
2022-11-17T16:25:10.387Z,55.78
2022-11-17T16:27:55.723Z,55.42
2022-11-17T16:30:41.829Z,53.78
2022-11-17T16:33:27.699Z,53.22
2022-11-17T16:36:13.239Z,53.45
2022-11-17T16:39:01.508Z,54.42
2022-11-17T16:41:50.091Z,52.03
2022-11-17T16:44:35.663Z,53.05
2022-11-17T16:47:20.999Z,52.60
2022-11-17T16:50:07.054Z,51.85
2022-11-17T16:52:52.564Z,51.13
2022-11-17T16:55:38.736Z,50.55
2022-11-17T16:58:24.080Z,51.72
2022-11-17T17:01:15.357Z,51.55
2022-11-17T17:04:04.179Z,50.85
2022-11-17T17:06:49.858Z,49.60
2022-11-17T17:09:37.298Z,49.67
2022-11-17T17:12:23.053Z,49.72
2022-11-17T17:15:10.054Z,49.47
2022-11-17T17:17:55.554Z,47.47
2022-11-17T17:20:50.551Z,48.15
2022-11-17T17:23:35.999Z,46.58
2022-11-17T17:26:23.192Z,47.25
2022-11-17T17:29:09.926Z,46.85
2022-11-17T17:31:55.461Z,46.45
2022-11-17T17:34:40.993Z,47.65
2022-11-17T17:37:26.299Z,46.42
2022-11-17T17:40:12.150Z,48.05
2022-11-17T17:42:57.771Z,45.67
2022-11-17T17:45:43.110Z,47.38
2022-11-17T17:48:31.154Z,45.03
2022-11-17T17:51:19.382Z,44.80
2022-11-17T17:54:05.058Z,44.97
2022-11-17T17:56:51.132Z,45.45
2022-11-17T17:59:36.597Z,45.17
2022-11-17T18:02:21.978Z,45.15
2022-11-17T18:05:07.740Z,44.42
2022-11-17T18:07:53.344Z,45.45
2022-11-17T18:10:39.097Z,43.95
2022-11-17T18:13:24.639Z,44.72
2022-11-17T18:16:16.877Z,44.30
2022-11-17T18:19:08.348Z,43.10
2022-11-17T18:21:53.946Z,43.58
2022-11-17T18:24:39.529Z,43.00
2022-11-17T18:27:25.127Z,42.72
2022-11-17T18:30:11.032Z,43.13
2022-11-17T18:33:02.688Z,42.50
2022-11-17T18:35:48.572Z,41.85
2022-11-17T18:38:37.404Z,42.25
2022-11-17T18:41:23.730Z,41.60
2022-11-17T18:44:12.738Z,40.10
2022-11-17T18:47:02.559Z,40.75
2022-11-17T18:49:48.709Z,40.25
2022-11-17T18:52:34.547Z,40.33
2022-11-17T18:55:19.973Z,39.78
2022-11-17T18:58:05.547Z,38.80
2022-11-17T19:00:51.040Z,37.55
2022-11-17T19:03:37.406Z,36.92
2022-11-17T19:06:24.946Z,37.63
2022-11-17T19:09:11.021Z,35.75
2022-11-17T19:11:56.587Z,33.80
2022-11-17T19:14:42.197Z,34.45
2022-11-17T19:17:27.716Z,33.80
2022-11-17T19:20:13.484Z,33.45
2022-11-17T19:22:59.046Z,33.20
2022-11-17T19:25:45.513Z,33.22
2022-11-17T19:28:31.354Z,31.40
2022-11-17T19:31:19.073Z,32.25
2022-11-17T19:34:05.058Z,30.83
2022-11-17T19:36:50.799Z,29.95
2022-11-17T19:39:36.338Z,30.27
2022-11-17T19:42:21.963Z,30.27
2022-11-17T19:45:08.644Z,29.83
2022-11-17T19:47:54.109Z,30.48
2022-11-17T19:50:39.775Z,29.88
2022-11-17T19:53:26.154Z,29.95
2022-11-17T19:56:11.793Z,29.65
2022-11-17T19:58:57.971Z,29.00
2022-11-17T20:01:43.503Z,28.98
2022-11-17T20:04:29.142Z,29.23
2022-11-17T20:07:14.870Z,28.67
2022-11-17T20:10:00.266Z,27.70
2022-11-17T20:12:46.504Z,27.02
2022-11-17T20:15:35.309Z,26.67
2022-11-17T20:18:20.909Z,26.15
2022-11-17T20:21:07.451Z,25.88
2022-11-17T20:23:55.913Z,25.80
2022-11-17T20:26:43.042Z,26.25
2022-11-17T20:29:28.647Z,25.58
2022-11-17T20:32:14.235Z,25.38
2022-11-17T20:34:59.711Z,25.20
2022-11-17T20:37:45.172Z,24.60
2022-11-17T20:40:32.088Z,24.35
2022-11-17T20:43:17.786Z,24.90
2022-11-17T20:46:03.772Z,23.63
2022-11-17T20:48:49.604Z,24.48
2022-11-17T20:51:35.240Z,23.23
2022-11-17T20:54:20.681Z,23.27
2022-11-17T20:57:06.183Z,23.50
2022-11-17T20:59:51.976Z,22.10
2022-11-17T21:02:37.414Z,22.65
2022-11-17T21:05:23.164Z,21.67
2022-11-17T21:08:09.084Z,21.55
2022-11-17T21:11:00.435Z,20.98
2022-11-17T21:13:45.967Z,20.15
2022-11-17T21:16:31.984Z,20.23
2022-11-17T21:19:18.075Z,20.45
2022-11-17T21:22:04.144Z,20.80
2022-11-17T21:24:49.885Z,19.88
2022-11-17T21:27:35.355Z,19.85
2022-11-17T21:30:22.044Z,20.30
2022-11-17T21:33:07.647Z,20.35
2022-11-17T21:36:00.181Z,19.30
2022-11-17T21:38:46.845Z,18.92
2022-11-17T21:41:38.461Z,12.05
2022-11-17T21:44:24.033Z,11.77
2022-11-17T21:47:09.753Z,11.63
2022-11-17T21:49:55.448Z,11.45
2022-11-17T21:52:40.993Z,10.50
2022-11-17T21:55:26.383Z,10.88
2022-11-17T21:58:11.887Z,10.52
2022-11-17T22:00:57.535Z,10.00
2022-11-17T22:03:43.577Z,10.85
2022-11-17T22:06:30.365Z,8.90
2022-11-17T22:09:19.436Z,8.90
2022-11-17T22:12:05.059Z,8.77
2022-11-17T22:14:50.814Z,8.65
2022-11-17T22:17:36.278Z,8.10
2022-11-17T22:20:22.115Z,7.63
2022-11-17T22:23:07.770Z,7.90
2022-11-17T22:25:58.125Z,7.10
2022-11-17T22:28:43.874Z,6.97
2022-11-17T22:31:29.334Z,6.70
2022-11-17T22:34:15.783Z,6.43
2022-11-17T22:37:01.353Z,6.30
2022-11-17T22:39:46.918Z,7.13
2022-11-17T22:42:32.385Z,6.70
2022-11-17T22:45:17.877Z,6.47
2022-11-17T22:48:03.838Z,6.77
2022-11-17T22:50:49.507Z,6.13
2022-11-17T22:53:35.396Z,6.23
2022-11-17T22:56:21.233Z,7.30
2022-11-17T22:59:07.156Z,5.70
2022-11-17T23:01:52.604Z,5.97
2022-11-17T23:04:38.208Z,5.73
2022-11-17T23:07:23.694Z,6.47
2022-11-17T23:10:10.246Z,6.30
2022-11-17T23:12:56.391Z,5.23
2022-11-17T23:15:42.127Z,5.53
2022-11-17T23:18:27.728Z,6.57
2022-11-17T23:21:13.902Z,5.23
2022-11-17T23:23:59.244Z,5.40
2022-11-17T23:26:44.875Z,4.50
2022-11-17T23:29:30.764Z,6.20
2022-11-17T23:32:16.296Z,5.23
2022-11-17T23:35:01.783Z,6.07
2022-11-17T23:37:47.477Z,4.87
2022-11-17T23:40:33.483Z,6.03
2022-11-17T23:43:19.167Z,5.33
2022-11-17T23:46:15.471Z,5.60
2022-11-17T23:49:00.973Z,5.50
2022-11-17T23:51:46.588Z,6.57
2022-11-17T23:54:31.963Z,7.23
2022-11-17T23:57:17.464Z,5.03
